createdAt,value
2018-11-06T00:00:41.822Z,57.20
2018-11-06T00:01:41.841Z,51.50
2018-11-06T00:02:41.856Z,52.40
2018-11-06T00:03:41.881Z,56.10
2018-11-06T00:04:41.892Z,53.30
2018-11-06T00:05:41.909Z,51.00
2018-11-06T00:06:41.926Z,50.00
2018-11-06T00:07:41.945Z,51.10
2018-11-06T00:08:41.961Z,54.10
2018-11-06T00:09:41.979Z,52.80
2018-11-06T00:10:41.997Z,58.30
2018-11-06T00:11:42.012Z,51.50
2018-11-06T00:12:42.034Z,49.80
2018-11-06T00:13:42.055Z,54.70
2018-11-06T00:14:42.768Z,55.00
2018-11-06T00:15:42.083Z,50.30
2018-11-06T00:16:42.105Z,47.80
2018-11-06T00:17:42.118Z,48.80
2018-11-06T00:18:42.135Z,51.10
2018-11-06T00:19:42.153Z,51.40
2018-11-06T00:20:42.168Z,48.50
2018-11-06T00:21:42.188Z,51.20
2018-11-06T00:22:42.205Z,49.00
2018-11-06T00:23:42.221Z,47.80
2018-11-06T00:24:42.238Z,53.40
2018-11-06T00:25:42.256Z,49.00
2018-11-06T00:26:42.275Z,49.40
2018-11-06T00:27:42.291Z,54.10
2018-11-06T00:28:42.309Z,51.20
2018-11-06T00:29:42.326Z,47.80
2018-11-06T00:30:42.343Z,47.40
2018-11-06T00:31:42.360Z,48.60
2018-11-06T00:32:42.380Z,59.20
2018-11-06T00:33:42.396Z,48.10
2018-11-06T00:34:42.421Z,50.80
2018-11-06T00:35:42.428Z,49.30
2018-11-06T00:36:42.447Z,51.00
2018-11-06T00:37:42.465Z,51.40
2018-11-06T00:38:42.689Z,52.10
2018-11-06T00:39:42.499Z,52.70
2018-11-06T00:40:42.520Z,51.90
2018-11-06T00:41:42.585Z,49.10
2018-11-06T00:42:42.551Z,49.10
2018-11-06T00:43:42.568Z,47.10
2018-11-06T00:44:42.584Z,45.40
2018-11-06T00:45:42.602Z,45.10
2018-11-06T00:46:42.621Z,45.90
2018-11-06T00:47:42.637Z,50.40
2018-11-06T00:48:42.657Z,48.20
2018-11-06T00:49:42.673Z,53.30
2018-11-06T00:50:42.690Z,48.40
2018-11-06T00:51:42.706Z,54.30
2018-11-06T00:52:42.730Z,55.40
2018-11-06T00:53:42.741Z,53.10
2018-11-06T00:54:42.760Z,47.60
2018-11-06T00:55:42.774Z,47.60
2018-11-06T00:56:42.792Z,50.10
2018-11-06T00:57:42.810Z,51.60
2018-11-06T00:58:42.827Z,47.80
2018-11-06T00:59:42.844Z,50.40
2018-11-06T01:00:42.861Z,51.80
2018-11-06T01:01:42.878Z,58.20
2018-11-06T01:02:42.897Z,45.60
2018-11-06T01:03:42.913Z,53.10
2018-11-06T01:04:42.930Z,50.10
2018-11-06T01:05:42.948Z,47.10
2018-11-06T01:06:42.964Z,48.50
2018-11-06T01:07:42.982Z,49.10
2018-11-06T01:08:43.000Z,48.90
2018-11-06T01:09:43.017Z,47.40
2018-11-06T01:10:43.034Z,47.70
2018-11-06T01:11:43.051Z,46.90
2018-11-06T01:12:43.069Z,49.50
2018-11-06T01:13:43.093Z,47.80
2018-11-06T01:14:43.759Z,48.10
2018-11-06T01:15:43.120Z,45.20
2018-11-06T01:16:43.136Z,44.90
2018-11-06T01:17:43.155Z,49.10
2018-11-06T01:18:43.172Z,47.70
2018-11-06T01:19:43.190Z,43.30
2018-11-06T01:20:43.206Z,51.70
2018-11-06T01:21:43.224Z,46.00
2018-11-06T01:22:43.242Z,49.40
2018-11-06T01:23:43.259Z,44.90
2018-11-06T01:24:43.277Z,46.60
2018-11-06T01:25:43.295Z,44.00
2018-11-06T01:26:43.312Z,36.50
2018-11-06T01:27:43.328Z,46.00
2018-11-06T01:28:43.347Z,41.40
2018-11-06T01:29:43.364Z,39.90
2018-11-06T01:30:43.382Z,47.20
2018-11-06T01:31:43.399Z,41.40
2018-11-06T01:32:43.415Z,42.90
2018-11-06T01:33:43.433Z,41.60
2018-11-06T01:34:43.452Z,44.80
2018-11-06T01:35:43.467Z,38.60
2018-11-06T01:36:43.486Z,43.90
2018-11-06T01:37:43.504Z,45.30
2018-11-06T01:38:43.521Z,47.00
2018-11-06T01:39:43.538Z,45.40
2018-11-06T01:40:43.555Z,41.20
2018-11-06T01:41:43.572Z,44.10
2018-11-06T01:42:43.591Z,40.90
2018-11-06T01:43:43.608Z,46.60
2018-11-06T01:44:43.625Z,39.80
2018-11-06T01:45:43.644Z,42.30
2018-11-06T01:46:43.662Z,40.10
2018-11-06T01:47:43.677Z,39.50
2018-11-06T01:48:43.696Z,39.80
2018-11-06T01:49:43.713Z,45.80
2018-11-06T01:50:43.731Z,44.50
2018-11-06T01:51:43.747Z,45.10
2018-11-06T01:52:43.765Z,49.20
2018-11-06T01:53:43.784Z,44.10
2018-11-06T01:54:43.802Z,43.30
2018-11-06T01:55:43.817Z,42.80
2018-11-06T01:56:43.835Z,42.80
2018-11-06T01:57:43.855Z,43.10
2018-11-06T01:58:43.870Z,40.50
2018-11-06T01:59:43.887Z,43.20
2018-11-06T02:00:43.905Z,41.30
2018-11-06T02:01:43.922Z,42.70
2018-11-06T02:02:43.941Z,42.70
2018-11-06T02:03:43.957Z,37.80
2018-11-06T02:04:43.975Z,41.50
2018-11-06T02:05:43.993Z,42.90
2018-11-06T02:06:44.012Z,45.30
2018-11-06T02:07:44.030Z,39.40
2018-11-06T02:08:44.045Z,43.60
2018-11-06T02:09:44.063Z,42.80
2018-11-06T02:10:44.081Z,43.00
2018-11-06T02:11:44.097Z,43.40
2018-11-06T02:12:44.115Z,40.40
2018-11-06T02:13:44.133Z,39.30
2018-11-06T02:14:44.151Z,44.10
2018-11-06T02:15:44.167Z,41.50
2018-11-06T02:16:44.184Z,37.10
2018-11-06T02:17:44.201Z,45.00
2018-11-06T02:18:44.220Z,41.00
2018-11-06T02:19:44.237Z,40.00
2018-11-06T02:20:44.254Z,42.60
2018-11-06T02:21:44.271Z,43.00
2018-11-06T02:22:44.290Z,42.10
2018-11-06T02:23:44.306Z,40.10
2018-11-06T02:24:44.324Z,43.60
2018-11-06T02:25:44.346Z,39.00
2018-11-06T02:26:44.358Z,43.50
2018-11-06T02:27:44.374Z,39.00
2018-11-06T02:28:44.391Z,38.40
2018-11-06T02:29:44.410Z,41.80
2018-11-06T02:30:44.427Z,40.40
2018-11-06T02:31:44.450Z,39.30
2018-11-06T02:32:44.461Z,36.80
2018-11-06T02:33:44.479Z,46.30
2018-11-06T02:34:44.495Z,44.60
2018-11-06T02:35:44.513Z,45.30
2018-11-06T02:36:44.531Z,44.60
2018-11-06T02:37:44.549Z,42.10
2018-11-06T02:38:44.565Z,40.30
2018-11-06T02:39:44.603Z,42.60
2018-11-06T02:40:44.600Z,42.60
2018-11-06T02:41:44.618Z,42.60
2018-11-06T02:42:44.636Z,42.70
2018-11-06T02:43:44.649Z,38.10
2018-11-06T02:44:44.667Z,43.20
2018-11-06T02:45:44.684Z,47.40
2018-11-06T02:46:44.702Z,45.80
2018-11-06T02:47:44.718Z,44.00
2018-11-06T02:48:44.735Z,44.00
2018-11-06T02:49:44.750Z,44.60
2018-11-06T02:50:44.769Z,42.80
2018-11-06T02:51:44.785Z,43.60
2018-11-06T02:52:44.802Z,43.60
2018-11-06T02:53:44.820Z,46.60
2018-11-06T02:54:44.837Z,49.10
2018-11-06T02:55:44.929Z,44.10
2018-11-06T02:56:44.871Z,44.70
2018-11-06T02:57:44.887Z,45.90
2018-11-06T02:58:44.904Z,47.20
2018-11-06T02:59:44.920Z,52.60
2018-11-06T03:00:44.938Z,48.20
2018-11-06T03:01:44.954Z,45.20
2018-11-06T03:02:44.972Z,46.80
2018-11-06T03:03:44.988Z,48.20
2018-11-06T03:04:45.005Z,48.10
2018-11-06T03:05:45.027Z,52.00
2018-11-06T03:06:45.039Z,52.40
2018-11-06T03:07:45.055Z,49.80
2018-11-06T03:08:45.073Z,52.00
2018-11-06T03:09:45.090Z,49.00
2018-11-06T03:10:45.107Z,49.70
2018-11-06T03:11:45.123Z,57.20
2018-11-06T03:12:45.141Z,57.90
2018-11-06T03:13:45.157Z,58.80
2018-11-06T03:14:45.174Z,60.40
2018-11-06T03:15:45.241Z,57.70
2018-11-06T03:16:45.229Z,59.70
2018-11-06T03:17:45.230Z,60.70
2018-11-06T03:18:45.241Z,60.00
2018-11-06T03:19:45.258Z,60.20
2018-11-06T03:20:45.279Z,60.10
2018-11-06T03:21:45.291Z,62.90
2018-11-06T03:22:45.308Z,60.20
2018-11-06T03:23:45.324Z,56.80
2018-11-06T03:24:45.341Z,63.30
2018-11-06T03:25:45.357Z,53.20
2018-11-06T03:26:45.440Z,58.30
2018-11-06T03:27:45.391Z,60.10
2018-11-06T03:28:45.407Z,52.00
2018-11-06T03:29:45.426Z,54.70
2018-11-06T03:30:45.444Z,55.30
2018-11-06T03:31:45.459Z,59.10
2018-11-06T03:32:45.476Z,54.40
2018-11-06T03:33:45.493Z,55.00
2018-11-06T03:34:45.510Z,55.40
2018-11-06T03:35:45.526Z,56.30
2018-11-06T03:36:45.543Z,55.30
2018-11-06T03:37:45.561Z,59.20
2018-11-06T03:38:45.576Z,48.10
2018-11-06T03:39:45.595Z,51.60
2018-11-06T03:40:45.610Z,61.00
2018-11-06T03:41:45.627Z,53.10
2018-11-06T03:42:45.644Z,51.30
2018-11-06T03:43:45.661Z,57.80
2018-11-06T03:44:45.678Z,52.30
2018-11-06T03:45:45.694Z,49.90
2018-11-06T03:46:45.713Z,50.00
2018-11-06T03:47:45.726Z,51.60
2018-11-06T03:48:45.744Z,55.00
2018-11-06T03:49:45.762Z,50.10
2018-11-06T03:50:45.777Z,48.00
2018-11-06T03:51:45.793Z,45.20
2018-11-06T03:52:45.811Z,48.20
2018-11-06T03:53:45.827Z,44.70
2018-11-06T03:54:45.845Z,42.90
2018-11-06T03:55:45.860Z,47.50
2018-11-06T03:56:45.876Z,46.40
2018-11-06T03:57:45.894Z,42.90
2018-11-06T03:58:45.911Z,45.20
2018-11-06T03:59:45.932Z,46.50
2018-11-06T04:00:45.944Z,45.70
2018-11-06T04:01:45.960Z,42.40
2018-11-06T04:02:45.977Z,44.00
2018-11-06T04:03:45.999Z,43.10
2018-11-06T04:04:46.010Z,43.30
2018-11-06T04:05:46.026Z,45.30
2018-11-06T04:06:46.043Z,41.00
2018-11-06T04:07:46.061Z,41.20
2018-11-06T04:08:46.076Z,43.30
2018-11-06T04:09:46.095Z,43.50
2018-11-06T04:10:46.111Z,39.30
2018-11-06T04:11:46.125Z,39.20
2018-11-06T04:12:46.143Z,42.60
2018-11-06T04:13:46.159Z,42.70
2018-11-06T04:14:46.179Z,37.70
2018-11-06T04:15:46.192Z,38.40
2018-11-06T04:16:46.210Z,40.00
2018-11-06T04:17:46.234Z,36.40
2018-11-06T04:18:46.243Z,39.30
2018-11-06T04:19:46.259Z,37.30
2018-11-06T04:20:46.277Z,35.10
2018-11-06T04:21:46.292Z,36.20
2018-11-06T04:22:46.309Z,31.20
2018-11-06T04:23:46.325Z,37.10
2018-11-06T04:24:46.347Z,35.10
2018-11-06T04:25:46.358Z,35.70
2018-11-06T04:26:46.376Z,37.50
2018-11-06T04:27:46.392Z,32.90
2018-11-06T04:28:46.408Z,32.70
2018-11-06T04:29:46.424Z,36.50
2018-11-06T04:30:46.442Z,38.20
2018-11-06T04:31:46.458Z,36.50
2018-11-06T04:32:46.473Z,32.20
2018-11-06T04:33:46.492Z,39.20
2018-11-06T04:34:46.507Z,32.70
2018-11-06T04:35:46.525Z,33.90
2018-11-06T04:36:46.540Z,30.50
2018-11-06T04:37:46.558Z,32.40
2018-11-06T04:38:46.574Z,35.70
2018-11-06T04:39:46.598Z,34.80
2018-11-06T04:40:46.606Z,35.00
2018-11-06T04:41:46.623Z,40.80
2018-11-06T04:42:46.640Z,35.60
2018-11-06T04:43:46.655Z,32.60
2018-11-06T04:44:46.672Z,30.30
2018-11-06T04:45:46.692Z,32.90
2018-11-06T04:46:46.704Z,38.70
2018-11-06T04:47:46.721Z,36.90
2018-11-06T04:48:46.952Z,34.60
2018-11-06T04:49:46.755Z,36.20
2018-11-06T04:50:46.771Z,35.30
2018-11-06T04:51:46.786Z,33.20
2018-11-06T04:52:46.802Z,30.60
2018-11-06T04:53:46.823Z,36.30
2018-11-06T04:54:46.837Z,34.80
2018-11-06T04:55:46.852Z,35.30
2018-11-06T04:56:46.877Z,35.60
2018-11-06T04:57:46.889Z,34.00
2018-11-06T04:58:46.902Z,31.60
2018-11-06T04:59:46.918Z,32.30
2018-11-06T05:00:46.934Z,31.80
2018-11-06T05:01:46.951Z,36.70
2018-11-06T05:02:46.968Z,32.20
2018-11-06T05:03:46.983Z,35.80
2018-11-06T05:04:47.000Z,37.90
2018-11-06T05:05:47.016Z,33.60
2018-11-06T05:06:47.089Z,35.10
2018-11-06T05:07:47.049Z,36.60
2018-11-06T05:08:47.065Z,37.50
2018-11-06T05:09:47.082Z,42.60
2018-11-06T05:10:47.099Z,35.40
2018-11-06T05:11:47.113Z,36.10
2018-11-06T05:12:47.129Z,39.00
2018-11-06T05:13:47.205Z,33.90
2018-11-06T05:14:47.163Z,37.90
2018-11-06T05:15:47.179Z,39.20
2018-11-06T05:16:47.196Z,36.30
2018-11-06T05:17:47.213Z,37.40
2018-11-06T05:18:47.230Z,34.00
2018-11-06T05:19:47.245Z,34.90
2018-11-06T05:20:47.261Z,40.30
2018-11-06T05:21:47.277Z,37.00
2018-11-06T05:22:47.795Z,35.60
2018-11-06T05:23:47.311Z,37.20
2018-11-06T05:24:47.328Z,34.70
2018-11-06T05:25:47.344Z,39.20
2018-11-06T05:26:47.363Z,40.70
2018-11-06T05:27:47.375Z,34.80
2018-11-06T05:28:47.393Z,37.30
2018-11-06T05:29:47.416Z,36.10
2018-11-06T05:30:47.426Z,39.80
2018-11-06T05:31:47.441Z,41.00
2018-11-06T05:32:47.468Z,38.70
2018-11-06T05:33:47.475Z,41.00
2018-11-06T05:34:47.515Z,38.20
2018-11-06T05:35:47.507Z,38.50
2018-11-06T05:36:47.522Z,35.80
2018-11-06T05:37:47.540Z,42.00
2018-11-06T05:38:47.602Z,37.30
2018-11-06T05:39:47.575Z,40.10
2018-11-06T05:40:47.590Z,38.00
2018-11-06T05:41:47.606Z,45.40
2018-11-06T05:42:47.623Z,39.60
2018-11-06T05:43:47.695Z,45.10
2018-11-06T05:44:47.655Z,41.10
2018-11-06T05:45:47.677Z,36.20
2018-11-06T05:46:47.689Z,37.50
2018-11-06T05:47:47.704Z,37.00
2018-11-06T05:48:47.721Z,39.20
2018-11-06T05:49:47.738Z,38.70
2018-11-06T05:50:47.753Z,36.20
2018-11-06T05:51:47.771Z,46.00
2018-11-06T05:52:47.789Z,42.20
2018-11-06T05:53:47.807Z,42.60
2018-11-06T05:54:47.821Z,41.40
2018-11-06T05:55:47.837Z,44.30
2018-11-06T05:56:47.852Z,39.20
2018-11-06T05:57:47.870Z,37.70
2018-11-06T05:58:47.887Z,38.50
2018-11-06T05:59:47.903Z,37.90
2018-11-06T06:00:47.922Z,39.30
2018-11-06T06:01:47.937Z,39.80
2018-11-06T06:02:47.953Z,39.30
2018-11-06T06:03:47.969Z,39.20
2018-11-06T06:04:47.985Z,36.80
2018-11-06T06:05:48.001Z,38.70
2018-11-06T06:06:48.019Z,37.30
2018-11-06T06:07:48.037Z,40.70
2018-11-06T06:08:48.052Z,41.70
2018-11-06T06:09:48.068Z,41.80
2018-11-06T06:10:48.085Z,37.50
2018-11-06T06:11:48.101Z,36.00
2018-11-06T06:12:48.117Z,41.10
2018-11-06T06:13:48.134Z,42.90
2018-11-06T06:14:48.153Z,38.50
2018-11-06T06:15:48.167Z,39.70
2018-11-06T06:16:48.282Z,38.60
2018-11-06T06:17:48.199Z,36.20
2018-11-06T06:18:48.217Z,44.30
2018-11-06T06:19:48.232Z,38.20
2018-11-06T06:20:48.252Z,36.30
2018-11-06T06:21:48.266Z,40.80
2018-11-06T06:22:48.283Z,41.50
2018-11-06T06:23:48.301Z,40.90
2018-11-06T06:24:48.314Z,41.50
2018-11-06T06:25:48.333Z,38.00
2018-11-06T06:26:48.348Z,43.20
2018-11-06T06:27:48.365Z,41.60
2018-11-06T06:28:48.387Z,42.70
2018-11-06T06:29:48.401Z,42.40
2018-11-06T06:30:48.414Z,42.80
2018-11-06T06:31:48.434Z,38.20
2018-11-06T06:32:48.449Z,39.50
2018-11-06T06:33:48.464Z,37.90
2018-11-06T06:34:48.483Z,36.50
2018-11-06T06:35:48.497Z,38.40
2018-11-06T06:36:48.517Z,38.80
2018-11-06T06:37:48.532Z,39.20
2018-11-06T06:38:48.623Z,38.70
2018-11-06T06:39:48.563Z,38.30
2018-11-06T06:40:48.628Z,37.70
2018-11-06T06:41:48.597Z,39.00
2018-11-06T06:42:48.615Z,35.60
2018-11-06T06:43:48.631Z,35.30
2018-11-06T06:44:48.647Z,35.20
2018-11-06T06:45:48.664Z,37.90
2018-11-06T06:46:48.681Z,35.90
2018-11-06T06:47:48.696Z,35.20
2018-11-06T06:48:48.713Z,39.70
2018-11-06T06:49:48.731Z,34.40
2018-11-06T06:50:48.746Z,36.50
2018-11-06T06:51:48.763Z,32.80
2018-11-06T06:52:48.780Z,31.20
2018-11-06T06:53:48.818Z,37.20
2018-11-06T06:54:48.823Z,36.70
2018-11-06T06:55:49.230Z,37.40
2018-11-06T06:56:48.845Z,37.60
2018-11-06T06:57:48.867Z,33.20
2018-11-06T06:58:48.881Z,34.20
2018-11-06T06:59:48.896Z,33.80
2018-11-06T07:00:48.917Z,33.20
2018-11-06T07:01:48.930Z,34.90
2018-11-06T07:02:48.951Z,32.40
2018-11-06T07:03:48.963Z,30.70
2018-11-06T07:04:48.980Z,33.20
2018-11-06T07:05:48.996Z,32.40
2018-11-06T07:06:49.014Z,34.10
2018-11-06T07:07:49.030Z,34.20
2018-11-06T07:08:49.049Z,28.60
2018-11-06T07:09:49.064Z,32.10
2018-11-06T07:10:49.081Z,27.20
2018-11-06T07:11:49.097Z,32.00
2018-11-06T07:12:49.191Z,33.00
2018-11-06T07:13:49.134Z,29.90
2018-11-06T07:14:49.148Z,35.60
2018-11-06T07:15:49.164Z,31.90
2018-11-06T07:16:49.181Z,30.70
2018-11-06T07:17:49.198Z,32.80
2018-11-06T07:18:49.324Z,34.90
2018-11-06T07:19:49.235Z,29.60
2018-11-06T07:20:49.248Z,31.10
2018-11-06T07:21:49.265Z,28.00
2018-11-06T07:22:49.282Z,29.60
2018-11-06T07:23:49.298Z,28.30
2018-11-06T07:24:49.315Z,29.70
2018-11-06T07:25:49.332Z,28.10
2018-11-06T07:26:49.349Z,28.80
2018-11-06T07:27:49.368Z,29.50
2018-11-06T07:28:49.404Z,28.70
2018-11-06T07:29:49.400Z,28.00
2018-11-06T07:30:49.417Z,26.00
2018-11-06T07:31:49.434Z,28.40
2018-11-06T07:32:49.449Z,26.90
2018-11-06T07:33:49.467Z,25.40
2018-11-06T07:34:49.665Z,25.00
2018-11-06T07:35:49.538Z,31.30
2018-11-06T07:36:49.518Z,31.60
2018-11-06T07:37:49.534Z,31.70
2018-11-06T07:38:49.553Z,27.10
2018-11-06T07:39:49.568Z,25.30
2018-11-06T07:40:49.610Z,28.20
2018-11-06T07:41:49.601Z,25.70
2018-11-06T07:42:49.619Z,25.40
2018-11-06T07:43:49.634Z,25.30
2018-11-06T07:44:49.651Z,28.10
2018-11-06T07:45:49.669Z,27.50
2018-11-06T07:46:49.686Z,26.40
2018-11-06T07:47:49.702Z,26.50
2018-11-06T07:48:49.719Z,25.00
2018-11-06T07:49:49.788Z,25.30
2018-11-06T07:50:49.756Z,24.60
2018-11-06T07:51:49.770Z,31.70
2018-11-06T07:52:49.786Z,34.60
2018-11-06T07:53:49.805Z,31.10
2018-11-06T07:54:49.822Z,29.60
2018-11-06T07:55:49.947Z,28.30
2018-11-06T07:56:49.857Z,35.60
2018-11-06T07:57:49.872Z,28.70
2018-11-06T07:58:49.892Z,32.10
2018-11-06T07:59:49.906Z,40.50
2018-11-06T08:00:49.923Z,40.60
2018-11-06T08:01:49.941Z,46.50
2018-11-06T08:02:49.960Z,45.20
2018-11-06T08:03:49.974Z,43.00
2018-11-06T08:04:49.995Z,52.10
2018-11-06T08:05:50.009Z,45.60
2018-11-06T08:06:50.028Z,42.90
2018-11-06T08:07:50.042Z,34.80
2018-11-06T08:08:50.060Z,31.90
2018-11-06T08:09:50.108Z,25.90
2018-11-06T08:10:50.097Z,25.10
2018-11-06T08:11:50.112Z,34.00
2018-11-06T08:12:50.129Z,40.20
2018-11-06T08:13:50.148Z,30.70
2018-11-06T08:14:50.197Z,24.00
2018-11-06T08:15:50.186Z,26.50
2018-11-06T08:16:50.196Z,23.50
2018-11-06T08:17:50.264Z,27.30
2018-11-06T08:18:50.240Z,27.10
2018-11-06T08:19:50.247Z,24.20
2018-11-06T08:20:50.266Z,25.80
2018-11-06T08:21:50.284Z,24.10
2018-11-06T08:22:50.301Z,22.40
2018-11-06T08:23:50.414Z,23.50
2018-11-06T08:24:50.334Z,23.90
2018-11-06T08:25:50.351Z,23.30
2018-11-06T08:26:50.370Z,25.00
2018-11-06T08:27:50.503Z,22.20
2018-11-06T08:28:50.402Z,22.80
2018-11-06T08:29:50.424Z,24.40
2018-11-06T08:30:50.657Z,23.60
2018-11-06T08:31:50.836Z,30.20
2018-11-06T08:32:50.841Z,24.80
2018-11-06T08:33:50.490Z,26.80
2018-11-06T08:34:50.509Z,26.50
2018-11-06T08:35:50.523Z,25.20
2018-11-06T08:36:50.560Z,22.00
2018-11-06T08:37:50.561Z,26.30
2018-11-06T08:38:50.747Z,22.50
2018-11-06T08:39:50.593Z,21.30
2018-11-06T08:40:50.610Z,24.90
2018-11-06T08:41:50.631Z,22.50
2018-11-06T08:42:50.646Z,26.70
2018-11-06T08:43:50.663Z,23.70
2018-11-06T08:44:50.718Z,21.20
2018-11-06T08:45:50.699Z,21.10
2018-11-06T08:46:50.715Z,23.50
2018-11-06T08:47:50.773Z,22.00
2018-11-06T08:48:50.750Z,22.20
2018-11-06T08:49:50.769Z,20.80
2018-11-06T08:50:50.786Z,21.10
2018-11-06T08:51:50.801Z,20.40
2018-11-06T08:52:50.820Z,25.00
2018-11-06T08:53:50.838Z,20.80
2018-11-06T08:54:50.856Z,24.50
2018-11-06T08:55:50.872Z,26.60
2018-11-06T08:56:50.891Z,22.20
2018-11-06T08:57:50.908Z,21.30
2018-11-06T08:58:50.927Z,22.80
2018-11-06T08:59:50.943Z,22.20
2018-11-06T09:00:50.961Z,23.50
2018-11-06T09:01:50.980Z,22.30
2018-11-06T09:02:50.998Z,23.60
2018-11-06T09:03:51.014Z,23.30
2018-11-06T09:04:51.034Z,22.40
2018-11-06T09:05:51.050Z,22.20
2018-11-06T09:06:51.069Z,27.30
2018-11-06T09:07:51.087Z,19.80
2018-11-06T09:08:51.299Z,24.60
2018-11-06T09:09:51.122Z,21.20
2018-11-06T09:10:51.142Z,24.20
2018-11-06T09:11:51.158Z,25.10
2018-11-06T09:12:51.177Z,23.00
2018-11-06T09:13:51.194Z,20.00
2018-11-06T09:14:51.272Z,23.30
2018-11-06T09:15:51.334Z,23.70
2018-11-06T09:16:51.279Z,28.10
2018-11-06T09:17:51.269Z,25.40
2018-11-06T09:18:51.286Z,25.60
2018-11-06T09:19:51.305Z,20.10
2018-11-06T09:20:51.323Z,20.80
2018-11-06T09:21:51.341Z,19.20
2018-11-06T09:22:51.361Z,18.50
2018-11-06T09:23:51.376Z,18.50
2018-11-06T09:24:51.397Z,20.70
2018-11-06T09:25:51.416Z,18.80
2018-11-06T09:26:51.435Z,20.10
2018-11-06T09:27:51.451Z,20.70
2018-11-06T09:28:51.474Z,22.00
2018-11-06T09:29:51.496Z,20.90
2018-11-06T09:30:51.571Z,22.30
2018-11-06T09:31:51.528Z,24.40
2018-11-06T09:32:51.548Z,22.00
2018-11-06T09:33:51.565Z,17.10
2018-11-06T09:34:51.584Z,21.70
2018-11-06T09:35:51.602Z,24.60
2018-11-06T09:36:51.672Z,23.40
2018-11-06T09:37:51.641Z,23.40
2018-11-06T09:38:51.658Z,23.10
2018-11-06T09:39:51.677Z,22.20
2018-11-06T09:40:51.697Z,21.40
2018-11-06T09:41:51.717Z,19.20
2018-11-06T09:42:51.736Z,19.10
2018-11-06T09:43:51.753Z,22.70
2018-11-06T09:44:51.806Z,19.90
2018-11-06T09:45:51.793Z,20.70
2018-11-06T09:46:51.811Z,20.30
2018-11-06T09:47:51.832Z,19.20
2018-11-06T09:48:51.931Z,20.60
2018-11-06T09:49:51.870Z,19.40
2018-11-06T09:50:51.888Z,30.00
2018-11-06T09:51:51.958Z,23.30
2018-11-06T09:52:51.927Z,28.60
2018-11-06T09:53:51.945Z,21.00
2018-11-06T09:54:51.965Z,26.80
2018-11-06T09:55:51.983Z,20.50
2018-11-06T09:56:52.003Z,23.40
2018-11-06T09:57:52.024Z,21.40
2018-11-06T09:58:52.051Z,25.70
2018-11-06T09:59:52.060Z,24.40
2018-11-06T10:00:52.080Z,18.20
2018-11-06T10:01:52.098Z,19.60
2018-11-06T10:02:52.120Z,18.50
2018-11-06T10:03:52.137Z,19.40
2018-11-06T10:04:52.157Z,21.40
2018-11-06T10:05:52.176Z,19.10
2018-11-06T10:06:52.504Z,23.70
2018-11-06T10:07:52.270Z,22.40
2018-11-06T10:08:52.234Z,20.80
2018-11-06T10:09:52.254Z,22.50
2018-11-06T10:10:52.273Z,24.90
2018-11-06T10:11:52.293Z,27.20
2018-11-06T10:12:52.311Z,23.70
2018-11-06T10:13:52.330Z,26.90
2018-11-06T10:14:52.351Z,31.30
2018-11-06T10:15:52.370Z,24.10
2018-11-06T10:16:52.387Z,28.50
2018-11-06T10:17:52.409Z,22.70
2018-11-06T10:18:52.429Z,23.20
2018-11-06T10:19:52.447Z,24.40
2018-11-06T10:20:52.467Z,20.80
2018-11-06T10:21:52.487Z,18.70
2018-11-06T10:22:52.507Z,19.80
2018-11-06T10:23:52.531Z,16.80
2018-11-06T10:24:52.549Z,17.80
2018-11-06T10:25:52.566Z,20.20
2018-11-06T10:26:52.585Z,17.10
2018-11-06T10:27:52.606Z,21.30
2018-11-06T10:28:52.628Z,18.90
2018-11-06T10:29:52.644Z,17.60
2018-11-06T10:30:52.727Z,17.40
2018-11-06T10:31:52.683Z,20.50
2018-11-06T10:32:52.703Z,24.80
2018-11-06T10:33:52.723Z,30.30
2018-11-06T10:34:52.746Z,65.20
2018-11-06T10:35:52.763Z,73.00
2018-11-06T10:36:52.785Z,25.40
2018-11-06T10:37:52.850Z,19.00
2018-11-06T10:38:52.832Z,21.50
2018-11-06T10:39:52.842Z,18.80
2018-11-06T10:40:52.863Z,18.50
2018-11-06T10:41:52.887Z,19.50
2018-11-06T10:42:52.902Z,18.50
2018-11-06T10:43:52.921Z,21.50
2018-11-06T10:44:52.941Z,19.10
2018-11-06T10:45:52.962Z,18.00
2018-11-06T10:46:52.981Z,18.50
2018-11-06T10:47:53.001Z,23.80
2018-11-06T10:48:53.024Z,20.00
2018-11-06T10:49:53.041Z,24.50
2018-11-06T10:50:53.061Z,23.00
2018-11-06T10:51:53.209Z,24.70
2018-11-06T10:52:53.100Z,25.10
2018-11-06T10:53:53.121Z,23.30
2018-11-06T10:54:53.141Z,22.60
2018-11-06T10:55:53.160Z,19.90
2018-11-06T10:56:53.182Z,22.90
2018-11-06T10:57:53.208Z,21.20
2018-11-06T10:58:53.221Z,20.00
2018-11-06T10:59:53.240Z,20.40
2018-11-06T11:00:53.260Z,18.80
2018-11-06T11:01:53.280Z,20.80
2018-11-06T11:02:53.300Z,23.20
2018-11-06T11:03:53.397Z,23.10
2018-11-06T11:04:53.340Z,19.80
2018-11-06T11:05:53.360Z,18.90
2018-11-06T11:06:53.380Z,24.50
2018-11-06T11:07:53.405Z,20.10
2018-11-06T11:08:53.503Z,17.80
2018-11-06T11:09:53.441Z,20.40
2018-11-06T11:10:53.463Z,20.70
2018-11-06T11:11:53.481Z,20.00
2018-11-06T11:12:53.500Z,23.00
2018-11-06T11:13:53.525Z,21.10
2018-11-06T11:14:53.546Z,21.90
2018-11-06T11:15:53.561Z,20.90
2018-11-06T11:16:53.579Z,20.00
2018-11-06T11:17:53.602Z,21.40
2018-11-06T11:18:53.622Z,22.10
2018-11-06T11:19:53.641Z,23.10
2018-11-06T11:20:53.662Z,20.20
2018-11-06T11:21:53.709Z,20.30
2018-11-06T11:22:53.704Z,28.00
2018-11-06T11:23:53.738Z,20.40
2018-11-06T11:24:53.745Z,21.40
2018-11-06T11:25:53.765Z,26.50
2018-11-06T11:26:53.785Z,20.30
2018-11-06T11:27:53.804Z,20.60
2018-11-06T11:28:53.825Z,18.60
2018-11-06T11:29:53.846Z,20.60
2018-11-06T11:30:53.867Z,20.90
2018-11-06T11:31:53.888Z,20.80
2018-11-06T11:32:53.915Z,16.40
2018-11-06T11:33:53.990Z,20.10
2018-11-06T11:34:53.950Z,21.10
2018-11-06T11:35:53.969Z,18.50
2018-11-06T11:36:53.990Z,21.50
2018-11-06T11:37:54.036Z,18.20
2018-11-06T11:38:54.032Z,24.30
2018-11-06T11:39:54.052Z,18.70
2018-11-06T11:40:54.075Z,19.60
2018-11-06T11:41:54.093Z,19.30
2018-11-06T11:42:54.114Z,20.40
2018-11-06T11:43:54.134Z,20.30
2018-11-06T11:44:54.155Z,20.70
2018-11-06T11:45:54.283Z,23.50
2018-11-06T11:46:54.648Z,22.00
2018-11-06T11:47:54.218Z,20.50
2018-11-06T11:48:54.588Z,25.10
2018-11-06T11:49:54.287Z,24.30
2018-11-06T11:50:54.425Z,24.50
2018-11-06T11:51:54.299Z,18.30
2018-11-06T11:52:54.323Z,20.10
2018-11-06T11:53:54.341Z,17.30
2018-11-06T11:54:54.363Z,18.70
2018-11-06T11:55:54.383Z,20.40
2018-11-06T11:56:54.403Z,18.90
2018-11-06T11:57:54.427Z,17.90
2018-11-06T11:58:54.446Z,19.50
2018-11-06T11:59:54.497Z,22.70
2018-11-06T12:00:54.488Z,19.50
2018-11-06T12:01:54.507Z,18.80
2018-11-06T12:02:54.528Z,25.00
2018-11-06T12:03:54.556Z,19.00
2018-11-06T12:04:54.570Z,22.40
2018-11-06T12:05:54.615Z,20.30
2018-11-06T12:06:54.612Z,19.90
2018-11-06T12:07:54.632Z,18.60
2018-11-06T12:08:54.654Z,15.90
2018-11-06T12:09:54.674Z,23.80
2018-11-06T12:10:54.695Z,21.10
2018-11-06T12:11:54.715Z,19.10
2018-11-06T12:12:54.736Z,21.50
2018-11-06T12:13:54.759Z,20.70
2018-11-06T12:14:54.778Z,17.60
2018-11-06T12:15:54.806Z,22.40
2018-11-06T12:16:55.170Z,29.70
2018-11-06T12:17:54.841Z,49.10
2018-11-06T12:18:54.861Z,75.30
2018-11-06T12:19:54.885Z,33.90
2018-11-06T12:20:54.903Z,32.00
2018-11-06T12:21:54.923Z,18.10
2018-11-06T12:22:54.947Z,22.90
2018-11-06T12:23:55.013Z,21.30
2018-11-06T12:24:55.151Z,18.70
2018-11-06T12:25:55.028Z,16.60
2018-11-06T12:26:55.029Z,19.80
2018-11-06T12:27:55.050Z,17.70
2018-11-06T12:28:55.113Z,17.30
2018-11-06T12:29:55.091Z,19.90
2018-11-06T12:30:55.113Z,17.90
2018-11-06T12:31:55.133Z,19.30
2018-11-06T12:32:55.158Z,20.20
2018-11-06T12:33:55.175Z,19.30
2018-11-06T12:34:55.196Z,18.90
2018-11-06T12:35:55.217Z,20.60
2018-11-06T12:36:55.290Z,20.30
2018-11-06T12:37:55.259Z,18.70
2018-11-06T12:38:55.280Z,14.30
2018-11-06T12:39:55.299Z,21.70
2018-11-06T12:40:55.321Z,18.30
2018-11-06T12:41:55.343Z,24.60
2018-11-06T12:42:55.417Z,19.20
2018-11-06T12:43:55.383Z,15.90
2018-11-06T12:44:55.406Z,17.50
2018-11-06T12:45:55.426Z,19.00
2018-11-06T12:46:55.448Z,19.90
2018-11-06T12:47:55.468Z,17.90
2018-11-06T12:48:55.488Z,18.90
2018-11-06T12:49:55.511Z,16.30
2018-11-06T12:50:55.531Z,16.90
2018-11-06T12:51:55.552Z,18.00
2018-11-06T12:52:55.574Z,19.60